METAR Data
IDs: Format: Raw Decoded Include TAF

Data at: 1337 UTC 14 Dec 2019

PAWM 141256Z AUTO 36006KT 9SM OVC018 M06/M07 A2951 RMK AO2 SNE52 SLP998 P0000 T10561067 FZRANO
PAWM 141156Z AUTO 36005KT 9SM -SN BKN018 OVC024 M06/M07 A2951 RMK AO2 SLP999 P0000 60000 T10611072 11056 21078 50001 FZRANO
PAWM 141056Z AUTO 01006KT 5SM -SN BR BKN020 OVC028 M06/M08 A2952 RMK AO2 SLP001 P0000 T10611078 FZRANO
PAWM 140956Z AUTO 02003KT 6SM -SN BR OVC023 M06/M08 A2952 RMK AO2 SLP001 P0000 T10561078 FZRANO
PAWM 140856Z AUTO 06003KT 9SM -SN OVC020 M06/M08 A2951 RMK AO2 SNE21B42 SLP998 P0000 60000 T10611078 410611128 53003 FZRANO
PAWM 140756Z AUTO 03005KT 9SM -SN OVC024 M07/M08 A2949 RMK AO2 SNB05E18B48 SLP993 P0000 T10671083 FZRANO
PAWM 140741Z AUTO 02006KT 10SM BKN026 OVC046 M07/M08 A2949 RMK AO2 SNB05E18 P0000 FZRANO
PAWM 140656Z AUTO 01005KT 10SM FEW024 BKN033 OVC044 M08/M09 A2950 RMK AO2 SNE13 SLP996 P0000 T10781089 FZRANO
PAWM 140653Z AUTO 01007KT 10SM SCT024 BKN033 OVC044 M08/M09 A2950 RMK AO2 SNE13 P0000 FZRANO
PAWM 140626Z AUTO 01006KT 10SM BKN024 OVC041 M07/M08 A2949 RMK AO2 SNE13 P0000 FZRANO
PAWM 140556Z AUTO 36004KT 8SM -SN FEW025 BKN033 OVC040 M07/M08 A2948 RMK AO2 SNB0457 SLP991 P0000 60000 T10671083 11061 21078 51013 FZRANO
PAWM 140541Z AUTO 06003KT 5SM -SN BR SCT026 OVC037 M06/M08 A2948 RMK AO2 SNB0457 P0000 FZRANO
PAWM 140456Z AUTO 13006KT 10SM BKN024 BKN029 OVC035 M06/M08 A2947 RMK AO2 SLP987 T10611078 FZRANO
PAWM 140356Z AUTO 12006KT 10SM OVC020 M07/M08 A2946 RMK AO2 SLP983 T10671083 FZRANO
PAWM 140256Z AUTO 12005KT 10SM BKN026 OVC031 M07/M09 A2945 RMK AO2 SLP978 60000 T10721089 51012 FZRANO
PAWM 140254Z AUTO 12006KT 10SM OVC028 M07/M09 A2944 RMK AO2 FZRANO
PAWM 140225Z AUTO 11006KT 10SM SCT014 OVC030 M07/M08 A2943 RMK AO2 FZRANO
PAWM 140156Z AUTO 14007KT 10SM OVC012 M07/M08 A2943 RMK AO2 UPB38E44SNE38 SLP972 P0000 T10671078 FZRANO
PAWM 140105Z AUTO 12009KT 4SM -SN BR BKN012 BKN017 OVC027 M07/M08 A2942 RMK AO2 P0000 FZRANO
PAWM 140056Z AUTO 11008KT 2 1/2SM -SN BR SCT008 BKN013 OVC021 M07/M08 A2941 RMK AO2 SLP966 P0000 T10721078 FZRANO
PAWM 140050Z AUTO 11008KT 2SM -SN BR FEW008 BKN020 OVC029 M07/M08 A2941 RMK AO2 VIS 1 1/2V2 1/2 P0000 FZRANO
PAWM 140045Z AUTO 12008KT 1SM -SN BR FEW006 BKN020 OVC027 M07/M08 A2941 RMK AO2 P0000 FZRANO
PAWM 140037Z AUTO 12008KT 1/2SM SN FZFG FEW006 BKN011 OVC026 M08/M09 A2940 RMK AO2 P0000 FZRANO
PAWM 140034Z AUTO 11008KT 3/4SM -SN BR SCT011 BKN017 OVC029 M08/M09 A2940 RMK AO2 P0000 FZRANO
PAWM 140023Z AUTO 10010KT 1 1/4SM -SN BR FEW011 BKN020 OVC029 M08/M09 A2940 RMK AO2 P0000 FZRANO
PAWM 140020Z AUTO 11009KT 1SM -SN BR BKN011 BKN020 OVC025 M08/M09 A2940 RMK AO2 P0000 FZRANO
PAWM 140013Z AUTO 11010KT 3/4SM -SN BR SCT013 OVC018 M08/M09 A2940 RMK AO2 P0000 FZRANO
PAWM 140007Z AUTO 10008KT 1 1/2SM -SN BR SCT015 BKN021 OVC027 M08/M09 A2940 RMK AO2 P0000 FZRANO
PAWM 140003Z AUTO 10008KT 3SM -SN BR SCT013 BKN018 OVC025 M08/M09 A2940 RMK AO2 P0000 FZRANO
PAWM 132356Z AUTO 11007KT 3SM -SN BR BKN014 OVC019 M08/M10 A2940 RMK AO2 SNB06 SLP961 P0000 60000 T10781100 11078 21128 53016 FZRANO
PAWM 132256Z AUTO 09008KT 10SM BKN018 OVC070 M08/M11 A2938 RMK AO2 SLP954 T10831111 FZRANO
PAWM 132156Z AUTO 11007KT 10SM BKN030 OVC075 M08/M11 A2937 RMK AO2 SLP950 T10831111 FZRANO
PAWM 132056Z AUTO 07007KT 10SM OVC090 M09/M11 A2935 RMK AO2 SLP946 T10941111 53014 FZRANO
PAWM 131956Z AUTO 00000KT 10SM SCT029 M10/M12 A2933 RMK AO2 SLP937 T11001117 FZRANO
PAWM 131944Z AUTO 05004KT 10SM BKN029 M11/M12 A2932 RMK AO2 FZRANO
PAWM 131856Z AUTO 35003KT 10SM BKN038 OVC120 M11/M12 A2932 RMK AO2 SLP936 T11061117 FZRANO
PAWM 131756Z AUTO 13003KT 10SM BKN120 M13/M14 A2931 RMK AO2 SLP932 T11281144 11078 21128 53005 FZRANO
PAWM 131556Z AUTO 00000KT 10SM CLR M09/M11 A2928 RMK AO2 SLP922 T10891106 FZRANO
PAWM 131456Z AUTO 36003KT 10SM CLR M11/M12 A2929 RMK AO2 SLP926 T11061122 56004 FZRANO
PAWM 131356Z AUTO 00000KT 10SM CLR M11/M12 A2930 RMK AO2 SLP926 T11061122 FZRANO
PAWM 131256Z AUTO 33006KT 10SM CLR M09/M11 A2930 RMK AO2 SLP927 T10891106 FZRANO
PAWM 131156Z AUTO 02007KT 10SM CLR M08/M11 A2931 RMK AO2 SLP930 T10831106 11061 21100 56002 FZRANO
PAWM 131056Z AUTO 02007KT 10SM CLR M08/M11 A2931 RMK AO2 SLP930 T10831106 FZRANO
PAWM 130956Z AUTO 36006KT 10SM CLR M07/M10 A2931 RMK AO2 SLP931 T10721100 FZRANO
PAWM 130856Z AUTO 34007KT 10SM CLR M08/M11 A2931 RMK AO2 SLP932 T10831106 400061083 58003 FZRANO
PAWM 130756Z AUTO 35005KT 10SM CLR M07/M09 A2932 RMK AO2 SLP935 T10671094 FZRANO
PAWM 130656Z AUTO 34007KT 10SM CLR M08/M10 A2932 RMK AO2 SLP935 T10781100 FZRANO
PAWM 130556Z AUTO 33006KT 10SM CLR M07/M09 A2932 RMK AO2 SLP936 T10721094 11044 21078 58012 FZRANO
PAWM 130456Z AUTO 02008KT 10SM CLR M08/M10 A2934 RMK AO2 SLP942 T10781100 FZRANO
PAWM 130356Z AUTO 35008KT 10SM CLR M08/M10 A2935 RMK AO2 SLP944 T10781100 FZRANO
PAWM 130256Z AUTO 34006KT 10SM CLR M06/M09 A2936 RMK AO2 SLP948 T10611094 55003 FZRANO
PAWM 130156Z AUTO 36008KT 10SM CLR M07/M09 A2935 RMK AO2 SLP946 T10671094 FZRANO